sensor_id;sensor_type;location;lat;lon;timestamp;pressure;altitude;pressure_sealevel;temperature;humidity
30856;BME280;17570;0.000;0.000;2022-07-22T00:02:17;96860.04;;;30.62;30.91
30856;BME280;17570;0.000;0.000;2022-07-22T00:04:45;96859.49;;;30.60;31.01
30856;BME280;17570;0.000;0.000;2022-07-22T00:07:13;96862.17;;;30.60;31.01
30856;BME280;17570;0.000;0.000;2022-07-22T00:09:40;96857.88;;;30.59;30.91
30856;BME280;17570;0.000;0.000;2022-07-22T00:12:08;96864.23;;;30.53;30.83
30856;BME280;17570;0.000;0.000;2022-07-22T00:14:35;96864.98;;;30.48;30.98
30856;BME280;17570;0.000;0.000;2022-07-22T00:17:03;96861.23;;;30.49;31.09
30856;BME280;17570;0.000;0.000;2022-07-22T00:19:30;96865.50;;;30.45;31.10
30856;BME280;17570;0.000;0.000;2022-07-22T00:21:58;96874.30;;;30.41;31.32
30856;BME280;17570;0.000;0.000;2022-07-22T00:24:25;96875.84;;;30.37;31.21
30856;BME280;17570;0.000;0.000;2022-07-22T00:26:54;96874.47;;;30.34;31.41
30856;BME280;17570;0.000;0.000;2022-07-22T00:29:22;96875.80;;;30.32;31.42
30856;BME280;17570;0.000;0.000;2022-07-22T00:31:49;96879.70;;;30.24;31.67
30856;BME280;17570;0.000;0.000;2022-07-22T00:34:17;96884.52;;;30.22;31.62
30856;BME280;17570;0.000;0.000;2022-07-22T00:36:44;96890.10;;;30.20;31.67
30856;BME280;17570;0.000;0.000;2022-07-22T00:39:12;96893.84;;;30.19;31.67
30856;BME280;17570;0.000;0.000;2022-07-22T00:41:39;96883.39;;;30.18;31.63
30856;BME280;17570;0.000;0.000;2022-07-22T00:44:07;96893.52;;;30.16;31.71
30856;BME280;17570;0.000;0.000;2022-07-22T00:46:36;96887.53;;;30.09;31.81
30856;BME280;17570;0.000;0.000;2022-07-22T00:49:04;96875.95;;;30.03;32.09
30856;BME280;17570;0.000;0.000;2022-07-22T00:51:33;96887.14;;;30.00;31.98
30856;BME280;17570;0.000;0.000;2022-07-22T00:54:01;96882.20;;;29.92;32.29
30856;BME280;17570;0.000;0.000;2022-07-22T00:56:29;96882.53;;;29.95;32.35
30856;BME280;17570;0.000;0.000;2022-07-22T00:58:58;96880.92;;;29.94;32.14
30856;BME280;17570;0.000;0.000;2022-07-22T01:01:26;96882.79;;;29.94;32.46
30856;BME280;17570;0.000;0.000;2022-07-22T01:03:54;96880.76;;;29.84;32.32
30856;BME280;17570;0.000;0.000;2022-07-22T01:06:22;96883.62;;;29.78;32.71
30856;BME280;17570;0.000;0.000;2022-07-22T01:08:49;96883.07;;;29.76;32.83
30856;BME280;17570;0.000;0.000;2022-07-22T01:11:18;96876.59;;;29.71;32.75
30856;BME280;17570;0.000;0.000;2022-07-22T01:13:46;96874.46;;;29.73;32.99
30856;BME280;17570;0.000;0.000;2022-07-22T01:16:15;96875.45;;;29.67;32.50
30856;BME280;17570;0.000;0.000;2022-07-22T01:18:43;96874.58;;;29.62;32.70
30856;BME280;17570;0.000;0.000;2022-07-22T01:21:11;96871.91;;;29.62;32.75
30856;BME280;17570;0.000;0.000;2022-07-22T01:23:39;96872.70;;;29.62;32.67
30856;BME280;17570;0.000;0.000;2022-07-22T01:26:08;96876.92;;;29.58;32.83
30856;BME280;17570;0.000;0.000;2022-07-22T01:28:36;96870.26;;;29.61;32.96
30856;BME280;17570;0.000;0.000;2022-07-22T01:31:04;96883.89;;;29.59;32.69
30856;BME280;17570;0.000;0.000;2022-07-22T01:33:31;96877.63;;;29.54;32.74
30856;BME280;17570;0.000;0.000;2022-07-22T01:36:00;96877.41;;;29.55;32.71
30856;BME280;17570;0.000;0.000;2022-07-22T01:38:28;96879.50;;;29.53;32.52
30856;BME280;17570;0.000;0.000;2022-07-22T01:40:55;96884.77;;;29.48;32.64
30856;BME280;17570;0.000;0.000;2022-07-22T01:43:23;96882.91;;;29.48;32.40
30856;BME280;17570;0.000;0.000;2022-07-22T01:45:51;96883.23;;;29.52;32.36
30856;BME280;17570;0.000;0.000;2022-07-22T01:48:19;96880.78;;;29.51;32.69
30856;BME280;17570;0.000;0.000;2022-07-22T01:50:47;96883.13;;;29.47;32.61
30856;BME280;17570;0.000;0.000;2022-07-22T01:53:15;96883.13;;;29.47;32.63
30856;BME280;17570;0.000;0.000;2022-07-22T01:55:44;96875.03;;;29.42;32.99
30856;BME280;17570;0.000;0.000;2022-07-22T01:58:12;96877.16;;;29.40;33.09
30856;BME280;17570;0.000;0.000;2022-07-22T02:00:40;96871.55;;;29.41;32.37
30856;BME280;17570;0.000;0.000;2022-07-22T02:03:07;96873.92;;;29.38;33.07
30856;BME280;17570;0.000;0.000;2022-07-22T02:05:38;96879.27;;;29.38;32.59
30856;BME280;17570;0.000;0.000;2022-07-22T02:08:08;96875.13;;;29.30;32.70
30856;BME280;17570;0.000;0.000;2022-07-22T02:10:41;96884.52;;;29.33;32.91
30856;BME280;17570;0.000;0.000;2022-07-22T02:13:09;96882.82;;;29.27;32.85
30856;BME280;17570;0.000;0.000;2022-07-22T02:15:36;96876.41;;;29.28;32.99
30856;BME280;17570;0.000;0.000;2022-07-22T02:18:14;96877.72;;;29.25;32.87
30856;BME280;17570;0.000;0.000;2022-07-22T02:20:42;96879.34;;;29.26;33.23
30856;BME280;17570;0.000;0.000;2022-07-22T02:23:10;96886.14;;;29.17;33.18
30856;BME280;17570;0.000;0.000;2022-07-22T02:25:39;96893.91;;;29.18;33.02
30856;BME280;17570;0.000;0.000;2022-07-22T02:28:07;96897.64;;;29.17;33.00
30856;BME280;17570;0.000;0.000;2022-07-22T02:30:35;96893.36;;;29.16;33.62
30856;BME280;17570;0.000;0.000;2022-07-22T02:33:03;96901.84;;;29.13;32.90
30856;BME280;17570;0.000;0.000;2022-07-22T02:35:30;96904.60;;;29.18;33.00
30856;BME280;17570;0.000;0.000;2022-07-22T02:37:58;96907.19;;;29.13;33.03
30856;BME280;17570;0.000;0.000;2022-07-22T02:40:26;96900.48;;;29.11;33.08
30856;BME280;17570;0.000;0.000;2022-07-22T02:42:53;96902.48;;;29.04;33.35
30856;BME280;17570;0.000;0.000;2022-07-22T02:45:21;96904.09;;;29.05;33.35
30856;BME280;17570;0.000;0.000;2022-07-22T02:47:51;96905.66;;;29.01;33.13
30856;BME280;17570;0.000;0.000;2022-07-22T02:50:19;96900.53;;;28.99;33.76
30856;BME280;17570;0.000;0.000;2022-07-22T02:52:46;96902.66;;;28.97;33.26
30856;BME280;17570;0.000;0.000;2022-07-22T02:55:15;96909.24;;;28.94;33.72
30856;BME280;17570;0.000;0.000;2022-07-22T02:57:43;96905.20;;;28.92;33.44
30856;BME280;17570;0.000;0.000;2022-07-22T03:00:11;96910.55;;;28.92;33.78
30856;BME280;17570;0.000;0.000;2022-07-22T03:02:39;96908.91;;;28.91;33.45
30856;BME280;17570;0.000;0.000;2022-07-22T03:05:08;96912.30;;;28.86;33.69
30856;BME280;17570;0.000;0.000;2022-07-22T03:07:37;96916.27;;;28.84;33.73
30856;BME280;17570;0.000;0.000;2022-07-22T03:10:08;96911.90;;;28.78;34.01
30856;BME280;17570;0.000;0.000;2022-07-22T03:12:36;96915.50;;;28.71;34.15
30856;BME280;17570;0.000;0.000;2022-07-22T03:15:04;96913.64;;;28.72;33.86
30856;BME280;17570;0.000;0.000;2022-07-22T03:17:34;96914.48;;;28.72;33.88
30856;BME280;17570;0.000;0.000;2022-07-22T03:20:04;96917.23;;;28.78;33.88
30856;BME280;17570;0.000;0.000;2022-07-22T03:22:32;96924.76;;;28.81;33.92
30856;BME280;17570;0.000;0.000;2022-07-22T03:25:00;96916.80;;;28.69;33.67
30856;BME280;17570;0.000;0.000;2022-07-22T03:27:27;96922.61;;;28.66;33.76
30856;BME280;17570;0.000;0.000;2022-07-22T03:29:55;96917.86;;;28.68;33.97
30856;BME280;17570;0.000;0.000;2022-07-22T03:32:23;96918.08;;;28.66;34.03
30856;BME280;17570;0.000;0.000;2022-07-22T03:34:51;96922.15;;;28.69;33.87
30856;BME280;17570;0.000;0.000;2022-07-22T03:37:19;96921.55;;;28.67;33.88
30856;BME280;17570;0.000;0.000;2022-07-22T03:39:47;96920.75;;;28.66;34.16
30856;BME280;17570;0.000;0.000;2022-07-22T03:42:14;96916.56;;;28.70;33.76
30856;BME280;17570;0.000;0.000;2022-07-22T03:44:43;96921.66;;;28.72;33.73
30856;BME280;17570;0.000;0.000;2022-07-22T03:47:17;96925.03;;;28.67;33.96
30856;BME280;17570;0.000;0.000;2022-07-22T03:49:42;96927.49;;;28.69;34.09
30856;BME280;17570;0.000;0.000;2022-07-22T03:52:11;96924.81;;;28.69;34.02
30856;BME280;17570;0.000;0.000;2022-07-22T03:54:40;96934.11;;;28.66;34.35
30856;BME280;17570;0.000;0.000;2022-07-22T03:57:08;96928.30;;;28.69;34.11
30856;BME280;17570;0.000;0.000;2022-07-22T03:59:35;96923.33;;;28.90;35.46
30856;BME280;17570;0.000;0.000;2022-07-22T04:02:03;96920.98;;;29.05;36.12
30856;BME280;17570;0.000;0.000;2022-07-22T04:04:31;96923.81;;;29.32;38.16
30856;BME280;17570;0.000;0.000;2022-07-22T04:06:59;96940.36;;;29.46;37.94
30856;BME280;17570;0.000;0.000;2022-07-22T04:09:28;96929.99;;;29.49;37.27
30856;BME280;17570;0.000;0.000;2022-07-22T04:11:56;96932.84;;;29.43;36.40
30856;BME280;17570;0.000;0.000;2022-07-22T04:14:24;96929.91;;;29.44;36.18
30856;BME280;17570;0.000;0.000;2022-07-22T04:16:54;96931.53;;;29.45;35.81
30856;BME280;17570;0.000;0.000;2022-07-22T04:19:21;96933.14;;;29.46;35.39
30856;BME280;17570;0.000;0.000;2022-07-22T04:21:50;96936.06;;;29.45;35.08
30856;BME280;17570;0.000;0.000;2022-07-22T04:24:20;96932.84;;;29.43;35.09
30856;BME280;17570;0.000;0.000;2022-07-22T04:26:47;96933.87;;;29.42;35.32
30856;BME280;17570;0.000;0.000;2022-07-22T04:29:15;96934.45;;;29.44;35.33
30856;BME280;17570;0.000;0.000;2022-07-22T04:31:43;96937.94;;;29.44;35.54
30856;BME280;17570;0.000;0.000;2022-07-22T04:34:12;96943.03;;;29.46;35.88
30856;BME280;17570;0.000;0.000;2022-07-22T04:36:40;96949.91;;;29.42;35.89
30856;BME280;17570;0.000;0.000;2022-07-22T04:39:08;96951.05;;;29.46;36.33
30856;BME280;17570;0.000;0.000;2022-07-22T04:41:36;96948.97;;;29.48;36.13
30856;BME280;17570;0.000;0.000;2022-07-22T04:44:04;96953.00;;;29.51;35.97
30856;BME280;17570;0.000;0.000;2022-07-22T04:46:32;96953.34;;;29.54;35.71
30856;BME280;17570;0.000;0.000;2022-07-22T04:49:00;96945.89;;;29.56;36.04
30856;BME280;17570;0.000;0.000;2022-07-22T04:51:28;96947.77;;;29.56;36.54
30856;BME280;17570;0.000;0.000;2022-07-22T04:53:57;96952.64;;;29.59;36.43
30856;BME280;17570;0.000;0.000;2022-07-22T04:56:24;96953.78;;;29.63;36.20
30856;BME280;17570;0.000;0.000;2022-07-22T04:58:52;96954.58;;;29.63;36.06
30856;BME280;17570;0.000;0.000;2022-07-22T05:01:20;96957.34;;;29.68;36.15
30856;BME280;17570;0.000;0.000;2022-07-22T05:03:49;96966.02;;;29.76;36.04
30856;BME280;17570;0.000;0.000;2022-07-22T05:06:18;96968.77;;;29.81;36.26
30856;BME280;17570;0.000;0.000;2022-07-22T05:08:46;96969.80;;;29.80;36.22
30856;BME280;17570;0.000;0.000;2022-07-22T05:11:14;96965.59;;;29.84;35.83
30856;BME280;17570;0.000;0.000;2022-07-22T05:13:42;96966.98;;;29.86;36.03
30856;BME280;17570;0.000;0.000;2022-07-22T05:16:09;96963.57;;;29.91;35.42
30856;BME280;17570;0.000;0.000;2022-07-22T05:18:38;96961.45;;;29.93;35.47
30856;BME280;17570;0.000;0.000;2022-07-22T05:21:07;96966.87;;;29.98;35.84
30856;BME280;17570;0.000;0.000;2022-07-22T05:23:35;96965.03;;;29.98;35.63
30856;BME280;17570;0.000;0.000;2022-07-22T05:26:05;96972.33;;;30.03;36.38
30856;BME280;17570;0.000;0.000;2022-07-22T05:28:33;96968.66;;;30.09;36.09
30856;BME280;17570;0.000;0.000;2022-07-22T05:31:00;96972.78;;;30.17;36.05
30856;BME280;17570;0.000;0.000;2022-07-22T05:33:30;96968.27;;;30.17;35.61
30856;BME280;17570;0.000;0.000;2022-07-22T05:36:02;96976.38;;;30.22;35.33
30856;BME280;17570;0.000;0.000;2022-07-22T05:38:33;96979.18;;;30.33;35.45
30856;BME280;17570;0.000;0.000;2022-07-22T05:41:01;96976.08;;;30.41;34.73
30856;BME280;17570;0.000;0.000;2022-07-22T05:43:30;96970.20;;;30.44;34.79
30856;BME280;17570;0.000;0.000;2022-07-22T05:45:58;96977.76;;;30.47;35.37
30856;BME280;17570;0.000;0.000;2022-07-22T05:48:26;96982.11;;;30.53;34.83
30856;BME280;17570;0.000;0.000;2022-07-22T05:50:54;96981.37;;;30.58;34.92
30856;BME280;17570;0.000;0.000;2022-07-22T05:53:21;96982.32;;;30.68;34.44
30856;BME280;17570;0.000;0.000;2022-07-22T05:55:49;96981.34;;;30.74;34.91
30856;BME280;17570;0.000;0.000;2022-07-22T05:58:19;96986.44;;;30.76;35.50
30856;BME280;17570;0.000;0.000;2022-07-22T06:00:46;96983.02;;;30.81;34.85
30856;BME280;17570;0.000;0.000;2022-07-22T06:03:14;96984.39;;;30.83;35.10
30856;BME280;17570;0.000;0.000;2022-07-22T06:05:42;96984.50;;;30.93;35.68
30856;BME280;17570;0.000;0.000;2022-07-22T06:08:10;96986.92;;;30.95;35.43
30856;BME280;17570;0.000;0.000;2022-07-22T06:10:42;96987.78;;;31.00;35.41
30856;BME280;17570;0.000;0.000;2022-07-22T06:13:10;96984.47;;;31.15;36.49
30856;BME280;17570;0.000;0.000;2022-07-22T06:15:39;96986.88;;;31.39;36.49
30856;BME280;17570;0.000;0.000;2022-07-22T06:18:06;96992.37;;;31.54;35.66
30856;BME280;17570;0.000;0.000;2022-07-22T06:20:34;96979.80;;;31.60;34.80
30856;BME280;17570;0.000;0.000;2022-07-22T06:23:02;96990.27;;;31.61;34.96
30856;BME280;17570;0.000;0.000;2022-07-22T06:25:30;96985.20;;;31.65;34.63
30856;BME280;17570;0.000;0.000;2022-07-22T06:27:58;96989.00;;;31.69;34.29
30856;BME280;17570;0.000;0.000;2022-07-22T06:30:26;96995.31;;;31.85;33.59
30856;BME280;17570;0.000;0.000;2022-07-22T06:32:53;96989.54;;;32.03;33.19
30856;BME280;17570;0.000;0.000;2022-07-22T06:35:21;96995.50;;;32.10;32.90
30856;BME280;17570;0.000;0.000;2022-07-22T06:37:50;96988.55;;;32.14;32.81
30856;BME280;17570;0.000;0.000;2022-07-22T06:40:18;96995.03;;;32.18;32.41
30856;BME280;17570;0.000;0.000;2022-07-22T06:42:50;96997.74;;;32.23;31.58
30856;BME280;17570;0.000;0.000;2022-07-22T06:45:23;96997.20;;;32.26;31.30
30856;BME280;17570;0.000;0.000;2022-07-22T06:47:55;96996.19;;;32.33;31.87
30856;BME280;17570;0.000;0.000;2022-07-22T06:50:23;96995.44;;;32.37;31.94
30856;BME280;17570;0.000;0.000;2022-07-22T06:52:51;97005.66;;;32.45;31.46
30856;BME280;17570;0.000;0.000;2022-07-22T06:55:19;96993.62;;;32.53;31.07
30856;BME280;17570;0.000;0.000;2022-07-22T06:58:00;96999.58;;;32.60;30.29
30856;BME280;17570;0.000;0.000;2022-07-22T07:00:28;97006.27;;;32.58;29.76
30856;BME280;17570;0.000;0.000;2022-07-22T07:03:16;97005.78;;;32.66;30.39
30856;BME280;17570;0.000;0.000;2022-07-22T07:05:49;97005.48;;;32.62;29.29
30856;BME280;17570;0.000;0.000;2022-07-22T07:08:17;97007.14;;;32.73;29.77
30856;BME280;17570;0.000;0.000;2022-07-22T07:10:45;97003.14;;;32.81;28.97
30856;BME280;17570;0.000;0.000;2022-07-22T07:13:14;97005.84;;;32.86;28.85
30856;BME280;17570;0.000;0.000;2022-07-22T07:15:43;97011.03;;;32.93;29.13
30856;BME280;17570;0.000;0.000;2022-07-22T07:18:10;97011.05;;;33.03;28.46
30856;BME280;17570;0.000;0.000;2022-07-22T07:20:38;97009.98;;;33.09;28.44
30856;BME280;17570;0.000;0.000;2022-07-22T07:23:08;97008.13;;;33.20;29.28
30856;BME280;17570;0.000;0.000;2022-07-22T07:25:37;97014.06;;;33.27;28.57
30856;BME280;17570;0.000;0.000;2022-07-22T07:28:05;97010.05;;;33.30;28.01
30856;BME280;17570;0.000;0.000;2022-07-22T07:30:49;97017.85;;;33.36;28.07
30856;BME280;17570;0.000;0.000;2022-07-22T07:33:17;97013.55;;;33.30;28.12
30856;BME280;17570;0.000;0.000;2022-07-22T07:35:45;97020.83;;;33.40;28.34
30856;BME280;17570;0.000;0.000;2022-07-22T07:38:13;97013.31;;;33.52;27.76
30856;BME280;17570;0.000;0.000;2022-07-22T07:40:42;97019.78;;;33.61;27.84
30856;BME280;17570;0.000;0.000;2022-07-22T07:43:11;97031.64;;;33.70;28.68
30856;BME280;17570;0.000;0.000;2022-07-22T07:45:39;97031.11;;;33.79;27.47
30856;BME280;17570;0.000;0.000;2022-07-22T07:48:07;97028.41;;;33.84;27.33
30856;BME280;17570;0.000;0.000;2022-07-22T07:50:34;97033.27;;;33.92;27.80
30856;BME280;17570;0.000;0.000;2022-07-22T07:53:04;97027.38;;;33.95;26.55
30856;BME280;17570;0.000;0.000;2022-07-22T07:55:32;97037.06;;;34.01;26.79
30856;BME280;17570;0.000;0.000;2022-07-22T07:58:02;97045.67;;;34.08;26.77
30856;BME280;17570;0.000;0.000;2022-07-22T08:00:29;97042.16;;;34.13;26.97
30856;BME280;17570;0.000;0.000;2022-07-22T08:03:00;97045.12;;;34.21;26.94
30856;BME280;17570;0.000;0.000;2022-07-22T08:05:29;97043.50;;;34.25;26.06
30856;BME280;17570;0.000;0.000;2022-07-22T08:07:58;97047.27;;;34.30;26.64
30856;BME280;17570;0.000;0.000;2022-07-22T08:10:27;97047.25;;;34.35;26.05
30856;BME280;17570;0.000;0.000;2022-07-22T08:13:03;97043.46;;;34.41;26.28
30856;BME280;17570;0.000;0.000;2022-07-22T08:15:44;97046.96;;;34.41;26.55
30856;BME280;17570;0.000;0.000;2022-07-22T08:18:17;97051.55;;;34.41;26.65
30856;BME280;17570;0.000;0.000;2022-07-22T08:20:44;97042.10;;;34.59;26.88
30856;BME280;17570;0.000;0.000;2022-07-22T08:23:12;97045.00;;;34.77;26.93
30856;BME280;17570;0.000;0.000;2022-07-22T08:25:42;97039.02;;;34.91;27.21
30856;BME280;17570;0.000;0.000;2022-07-22T08:28:10;97041.45;;;35.03;27.24
30856;BME280;17570;0.000;0.000;2022-07-22T08:30:38;97052.44;;;35.16;29.93
30856;BME280;17570;0.000;0.000;2022-07-22T08:33:06;97058.81;;;35.36;28.81
30856;BME280;17570;0.000;0.000;2022-07-22T08:35:36;97056.41;;;31.45;29.92
30856;BME280;17570;0.000;0.000;2022-07-22T08:38:04;97051.21;;;32.67;29.38
30856;BME280;17570;0.000;0.000;2022-07-22T08:40:33;97058.31;;;33.87;28.38
30856;BME280;17570;0.000;0.000;2022-07-22T08:43:03;97065.83;;;34.41;27.32
30856;BME280;17570;0.000;0.000;2022-07-22T08:45:31;97059.63;;;34.66;26.99
30856;BME280;17570;0.000;0.000;2022-07-22T08:47:59;97064.45;;;34.74;26.62
30856;BME280;17570;0.000;0.000;2022-07-22T08:50:46;97062.52;;;34.85;26.93
30856;BME280;17570;0.000;0.000;2022-07-22T08:53:19;97069.81;;;34.85;27.12
30856;BME280;17570;0.000;0.000;2022-07-22T08:55:48;97068.70;;;34.96;26.80
30856;BME280;17570;0.000;0.000;2022-07-22T08:58:16;97064.35;;;35.05;26.61
30856;BME280;17570;0.000;0.000;2022-07-22T09:00:43;97070.53;;;35.11;25.55
30856;BME280;17570;0.000;0.000;2022-07-22T09:03:22;97064.84;;;35.17;25.83
30856;BME280;17570;0.000;0.000;2022-07-22T09:05:53;97064.27;;;35.20;26.35
30856;BME280;17570;0.000;0.000;2022-07-22T09:08:21;97070.50;;;35.16;26.55
30856;BME280;17570;0.000;0.000;2022-07-22T09:10:53;97062.63;;;35.24;26.92
30856;BME280;17570;0.000;0.000;2022-07-22T09:13:39;97075.84;;;35.31;26.46
30856;BME280;17570;0.000;0.000;2022-07-22T09:16:14;97074.52;;;35.23;26.04
30856;BME280;17570;0.000;0.000;2022-07-22T09:18:53;97077.48;;;35.27;27.26
30856;BME280;17570;0.000;0.000;2022-07-22T09:21:44;97069.86;;;35.34;26.74
30856;BME280;17570;0.000;0.000;2022-07-22T09:26:59;97063.66;;;35.34;26.39
30856;BME280;17570;0.000;0.000;2022-07-22T09:29:35;97063.63;;;35.39;25.07
30856;BME280;17570;0.000;0.000;2022-07-22T09:32:07;97063.62;;;35.49;24.91
30856;BME280;17570;0.000;0.000;2022-07-22T09:35:02;97055.04;;;35.76;25.80
30856;BME280;17570;0.000;0.000;2022-07-22T09:37:34;97057.52;;;35.72;25.33
30856;BME280;17570;0.000;0.000;2022-07-22T09:40:12;97060.41;;;35.81;24.50
30856;BME280;17570;0.000;0.000;2022-07-22T09:42:44;97062.76;;;35.93;24.81
30856;BME280;17570;0.000;0.000;2022-07-22T09:45:12;97056.25;;;35.94;24.88
30856;BME280;17570;0.000;0.000;2022-07-22T09:47:42;97058.89;;;36.04;23.99
30856;BME280;17570;0.000;0.000;2022-07-22T09:50:29;97062.48;;;36.28;23.96
30856;BME280;17570;0.000;0.000;2022-07-22T09:53:18;97063.09;;;36.20;23.69
30856;BME280;17570;0.000;0.000;2022-07-22T09:55:58;97057.98;;;36.19;24.29
30856;BME280;17570;0.000;0.000;2022-07-22T09:58:32;97061.94;;;36.26;25.17
30856;BME280;17570;0.000;0.000;2022-07-22T10:01:03;97062.38;;;36.39;24.53
30856;BME280;17570;0.000;0.000;2022-07-22T10:03:33;97062.35;;;36.44;24.92
30856;BME280;17570;0.000;0.000;2022-07-22T10:06:01;97060.64;;;36.53;25.18
30856;BME280;17570;0.000;0.000;2022-07-22T10:08:30;97063.22;;;36.63;26.54
30856;BME280;17570;0.000;0.000;2022-07-22T10:10:59;97060.70;;;36.72;26.19
30856;BME280;17570;0.000;0.000;2022-07-22T10:13:27;97059.27;;;36.80;25.83
30856;BME280;17570;0.000;0.000;2022-07-22T10:15:56;97058.61;;;36.88;26.28
30856;BME280;17570;0.000;0.000;2022-07-22T10:18:24;97065.89;;;36.92;26.31
30856;BME280;17570;0.000;0.000;2022-07-22T10:21:03;97069.93;;;36.95;26.43
30856;BME280;17570;0.000;0.000;2022-07-22T10:23:31;97067.66;;;37.02;27.07
30856;BME280;17570;0.000;0.000;2022-07-22T10:26:00;97060.34;;;37.02;26.83
30856;BME280;17570;0.000;0.000;2022-07-22T10:28:32;97060.44;;;37.16;26.93
30856;BME280;17570;0.000;0.000;2022-07-22T10:31:20;97064.33;;;37.29;26.12
30856;BME280;17570;0.000;0.000;2022-07-22T10:33:32;97063.42;;;37.39;26.25
30856;BME280;17570;0.000;0.000;2022-07-22T10:36:03;97068.19;;;37.47;26.04
30856;BME280;17570;0.000;0.000;2022-07-22T10:38:32;97058.52;;;37.60;25.75
30856;BME280;17570;0.000;0.000;2022-07-22T10:41:00;97061.56;;;37.72;25.52
30856;BME280;17570;0.000;0.000;2022-07-22T10:43:28;97061.66;;;37.86;25.56
30856;BME280;17570;0.000;0.000;2022-07-22T10:46:00;97059.30;;;37.98;25.32
30856;BME280;17570;0.000;0.000;2022-07-22T10:51:13;97056.05;;;38.15;24.37
30856;BME280;17570;0.000;0.000;2022-07-22T10:53:45;97059.59;;;38.29;24.23
30856;BME280;17570;0.000;0.000;2022-07-22T10:56:15;97056.41;;;38.41;24.31
30856;BME280;17570;0.000;0.000;2022-07-22T10:58:44;97052.50;;;38.61;24.00
30856;BME280;17570;0.000;0.000;2022-07-22T11:01:13;97049.22;;;38.77;23.58
30856;BME280;17570;0.000;0.000;2022-07-22T11:03:43;97055.86;;;38.99;22.99
30856;BME280;17570;0.000;0.000;2022-07-22T11:08:55;97045.66;;;39.32;22.09
30856;BME280;17570;0.000;0.000;2022-07-22T11:11:18;97047.03;;;39.43;22.00
30856;BME280;17570;0.000;0.000;2022-07-22T11:13:46;97047.09;;;39.66;22.19
30856;BME280;17570;0.000;0.000;2022-07-22T11:16:18;97052.02;;;39.86;21.70
30856;BME280;17570;0.000;0.000;2022-07-22T11:18:47;97059.69;;;40.07;21.73
30856;BME280;17570;0.000;0.000;2022-07-22T11:21:15;97059.51;;;40.25;20.94
30856;BME280;17570;0.000;0.000;2022-07-22T11:23:43;97054.64;;;40.45;21.03
30856;BME280;17570;0.000;0.000;2022-07-22T11:26:13;97056.34;;;40.63;21.07
30856;BME280;17570;0.000;0.000;2022-07-22T11:28:40;97045.02;;;40.78;20.76
30856;BME280;17570;0.000;0.000;2022-07-22T11:31:09;97051.68;;;40.95;20.50
30856;BME280;17570;0.000;0.000;2022-07-22T11:33:37;97051.25;;;41.27;19.67
30856;BME280;17570;0.000;0.000;2022-07-22T11:36:05;97056.11;;;41.65;20.21
30856;BME280;17570;0.000;0.000;2022-07-22T11:38:40;97058.02;;;41.99;20.44
30856;BME280;17570;0.000;0.000;2022-07-22T11:41:08;97053.80;;;42.11;20.08
30856;BME280;17570;0.000;0.000;2022-07-22T11:43:45;97056.69;;;42.14;19.96
30856;BME280;17570;0.000;0.000;2022-07-22T11:46:08;97056.24;;;42.21;21.66
30856;BME280;17570;0.000;0.000;2022-07-22T11:48:35;97060.05;;;42.28;20.62
30856;BME280;17570;0.000;0.000;2022-07-22T11:51:04;97055.86;;;42.40;20.18
30856;BME280;17570;0.000;0.000;2022-07-22T11:53:33;97051.45;;;42.56;19.14
30856;BME280;17570;0.000;0.000;2022-07-22T11:56:01;97049.66;;;42.69;21.60
30856;BME280;17570;0.000;0.000;2022-07-22T11:58:35;97048.45;;;42.87;21.31
30856;BME280;17570;0.000;0.000;2022-07-22T12:01:03;97047.72;;;42.99;22.14
30856;BME280;17570;0.000;0.000;2022-07-22T12:03:36;97051.37;;;43.12;21.59
30856;BME280;17570;0.000;0.000;2022-07-22T12:06:06;97048.19;;;43.30;21.58
30856;BME280;17570;0.000;0.000;2022-07-22T12:08:34;97047.41;;;43.51;21.54
30856;BME280;17570;0.000;0.000;2022-07-22T12:11:02;97041.58;;;43.73;20.91
30856;BME280;17570;0.000;0.000;2022-07-22T12:13:30;97039.78;;;43.98;20.45
30856;BME280;17570;0.000;0.000;2022-07-22T12:15:58;97033.37;;;44.27;20.13
30856;BME280;17570;0.000;0.000;2022-07-22T12:18:26;97023.58;;;44.51;19.58
30856;BME280;17570;0.000;0.000;2022-07-22T12:20:55;97032.17;;;44.74;19.53
30856;BME280;17570;0.000;0.000;2022-07-22T12:23:26;97030.44;;;44.94;18.81
30856;BME280;17570;0.000;0.000;2022-07-22T12:26:01;97027.23;;;45.16;18.60
30856;BME280;17570;0.000;0.000;2022-07-22T12:28:24;97029.24;;;45.32;18.14
30856;BME280;17570;0.000;0.000;2022-07-22T12:30:54;97021.56;;;45.49;17.75
30856;BME280;17570;0.000;0.000;2022-07-22T12:33:22;97024.12;;;45.70;17.66
30856;BME280;17570;0.000;0.000;2022-07-22T12:35:59;97017.11;;;45.85;16.84
30856;BME280;17570;0.000;0.000;2022-07-22T12:38:27;97026.61;;;46.03;17.09
30856;BME280;17570;0.000;0.000;2022-07-22T12:40:55;97023.53;;;46.21;16.95
30856;BME280;17570;0.000;0.000;2022-07-22T12:43:25;97021.70;;;46.41;17.02
30856;BME280;17570;0.000;0.000;2022-07-22T12:45:53;97024.98;;;46.62;16.80
30856;BME280;17570;0.000;0.000;2022-07-22T12:48:21;97015.66;;;46.83;16.52
30856;BME280;17570;0.000;0.000;2022-07-22T12:53:25;97022.83;;;47.22;16.36
30856;BME280;17570;0.000;0.000;2022-07-22T12:55:55;97019.70;;;47.40;15.93
30856;BME280;17570;0.000;0.000;2022-07-22T12:58:26;97019.31;;;47.61;15.89
30856;BME280;17570;0.000;0.000;2022-07-22T13:00:54;97014.27;;;47.82;15.58
30856;BME280;17570;0.000;0.000;2022-07-22T13:03:23;97021.34;;;48.02;14.65
30856;BME280;17570;0.000;0.000;2022-07-22T13:05:59;97016.16;;;48.20;14.90
30856;BME280;17570;0.000;0.000;2022-07-22T13:08:22;97015.19;;;48.32;18.15
30856;BME280;17570;0.000;0.000;2022-07-22T13:10:52;97019.66;;;48.40;17.71
30856;BME280;17570;0.000;0.000;2022-07-22T13:13:21;97016.34;;;48.54;17.06
30856;BME280;17570;0.000;0.000;2022-07-22T13:15:49;97023.62;;;48.66;16.62
30856;BME280;17570;0.000;0.000;2022-07-22T13:18:17;97017.17;;;48.81;16.17
30856;BME280;17570;0.000;0.000;2022-07-22T13:20:46;97016.20;;;48.96;15.75
30856;BME280;17570;0.000;0.000;2022-07-22T13:23:14;97022.80;;;49.15;15.49
30856;BME280;17570;0.000;0.000;2022-07-22T13:25:42;97019.42;;;49.28;14.75
30856;BME280;17570;0.000;0.000;2022-07-22T13:28:09;97020.77;;;49.42;14.37
30856;BME280;17570;0.000;0.000;2022-07-22T13:30:37;97021.36;;;49.54;14.40
30856;BME280;17570;0.000;0.000;2022-07-22T13:33:04;97024.23;;;49.65;14.54